sensor_id;sensor_type;location;lat;lon;timestamp;P1;durP1;ratioP1;P2;durP2;ratioP2
85742;SDS011;76184;42.004;21.420;2024-03-06T00:01:15;28.00;;;13.57;;
85742;SDS011;76184;42.004;21.420;2024-03-06T00:03:41;27.23;;;13.93;;
85742;SDS011;76184;42.004;21.420;2024-03-06T00:06:07;28.15;;;13.50;;
85742;SDS011;76184;42.004;21.420;2024-03-06T00:08:34;26.23;;;14.73;;
85742;SDS011;76184;42.004;21.420;2024-03-06T00:11:00;29.88;;;14.77;;
85742;SDS011;76184;42.004;21.420;2024-03-06T00:13:26;29.33;;;14.65;;
85742;SDS011;76184;42.004;21.420;2024-03-06T00:15:52;32.30;;;14.95;;
85742;SDS011;76184;42.004;21.420;2024-03-06T00:18:18;27.42;;;14.27;;
85742;SDS011;76184;42.004;21.420;2024-03-06T00:20:44;29.88;;;14.95;;
85742;SDS011;76184;42.004;21.420;2024-03-06T00:23:10;32.42;;;16.30;;
85742;SDS011;76184;42.004;21.420;2024-03-06T00:25:37;34.28;;;17.20;;
85742;SDS011;76184;42.004;21.420;2024-03-06T00:28:03;35.47;;;17.98;;
85742;SDS011;76184;42.004;21.420;2024-03-06T00:30:29;33.92;;;17.33;;
85742;SDS011;76184;42.004;21.420;2024-03-06T00:32:56;31.00;;;16.63;;
85742;SDS011;76184;42.004;21.420;2024-03-06T00:35:22;33.20;;;17.98;;
85742;SDS011;76184;42.004;21.420;2024-03-06T00:37:48;30.75;;;16.20;;
85742;SDS011;76184;42.004;21.420;2024-03-06T00:40:14;34.65;;;16.60;;
85742;SDS011;76184;42.004;21.420;2024-03-06T00:42:40;33.88;;;17.08;;
85742;SDS011;76184;42.004;21.420;2024-03-06T00:45:07;36.13;;;18.33;;
85742;SDS011;76184;42.004;21.420;2024-03-06T00:47:33;31.83;;;18.10;;
85742;SDS011;76184;42.004;21.420;2024-03-06T00:49:59;35.10;;;17.60;;
85742;SDS011;76184;42.004;21.420;2024-03-06T00:52:26;38.67;;;18.02;;
85742;SDS011;76184;42.004;21.420;2024-03-06T00:54:52;35.97;;;17.85;;
85742;SDS011;76184;42.004;21.420;2024-03-06T00:57:18;33.28;;;18.25;;
85742;SDS011;76184;42.004;21.420;2024-03-06T00:59:44;41.38;;;19.85;;
85742;SDS011;76184;42.004;21.420;2024-03-06T01:02:10;34.00;;;19.65;;
85742;SDS011;76184;42.004;21.420;2024-03-06T01:04:37;36.80;;;19.35;;
85742;SDS011;76184;42.004;21.420;2024-03-06T01:07:03;33.65;;;18.38;;
85742;SDS011;76184;42.004;21.420;2024-03-06T01:09:29;37.70;;;20.63;;
85742;SDS011;76184;42.004;21.420;2024-03-06T01:11:55;40.67;;;19.08;;
85742;SDS011;76184;42.004;21.420;2024-03-06T01:14:21;35.75;;;19.80;;
85742;SDS011;76184;42.004;21.420;2024-03-06T01:16:48;35.60;;;18.40;;
85742;SDS011;76184;42.004;21.420;2024-03-06T01:19:14;32.53;;;18.48;;
85742;SDS011;76184;42.004;21.420;2024-03-06T01:21:40;34.10;;;18.15;;
85742;SDS011;76184;42.004;21.420;2024-03-06T01:24:07;34.05;;;18.33;;
85742;SDS011;76184;42.004;21.420;2024-03-06T01:26:33;38.28;;;18.30;;
85742;SDS011;76184;42.004;21.420;2024-03-06T01:28:59;35.53;;;19.00;;
85742;SDS011;76184;42.004;21.420;2024-03-06T01:31:25;38.70;;;18.35;;
85742;SDS011;76184;42.004;21.420;2024-03-06T01:33:51;37.88;;;18.88;;
85742;SDS011;76184;42.004;21.420;2024-03-06T01:36:17;32.05;;;18.10;;
85742;SDS011;76184;42.004;21.420;2024-03-06T01:38:44;31.65;;;17.58;;
85742;SDS011;76184;42.004;21.420;2024-03-06T01:41:11;33.83;;;17.75;;
85742;SDS011;76184;42.004;21.420;2024-03-06T01:43:37;33.58;;;18.73;;
85742;SDS011;76184;42.004;21.420;2024-03-06T01:46:04;36.35;;;18.85;;
85742;SDS011;76184;42.004;21.420;2024-03-06T01:48:31;39.55;;;20.02;;
85742;SDS011;76184;42.004;21.420;2024-03-06T01:50:58;37.47;;;19.55;;
85742;SDS011;76184;42.004;21.420;2024-03-06T01:53:26;42.67;;;21.13;;
85742;SDS011;76184;42.004;21.420;2024-03-06T01:55:53;39.47;;;19.30;;
85742;SDS011;76184;42.004;21.420;2024-03-06T01:58:19;38.58;;;18.77;;
85742;SDS011;76184;42.004;21.420;2024-03-06T02:00:46;35.90;;;18.77;;
85742;SDS011;76184;42.004;21.420;2024-03-06T02:03:12;36.53;;;18.38;;
85742;SDS011;76184;42.004;21.420;2024-03-06T02:05:39;39.22;;;21.02;;
85742;SDS011;76184;42.004;21.420;2024-03-06T02:08:07;40.17;;;19.55;;
85742;SDS011;76184;42.004;21.420;2024-03-06T02:10:33;41.85;;;20.98;;
85742;SDS011;76184;42.004;21.420;2024-03-06T02:12:59;37.20;;;20.40;;
85742;SDS011;76184;42.004;21.420;2024-03-06T02:15:26;42.05;;;24.13;;
85742;SDS011;76184;42.004;21.420;2024-03-06T02:17:52;41.28;;;22.75;;
85742;SDS011;76184;42.004;21.420;2024-03-06T02:20:24;38.17;;;20.83;;
85742;SDS011;76184;42.004;21.420;2024-03-06T02:22:50;38.83;;;21.15;;
85742;SDS011;76184;42.004;21.420;2024-03-06T02:25:17;38.67;;;21.85;;
85742;SDS011;76184;42.004;21.420;2024-03-06T02:27:44;42.45;;;23.27;;
85742;SDS011;76184;42.004;21.420;2024-03-06T02:30:10;36.92;;;21.33;;
85742;SDS011;76184;42.004;21.420;2024-03-06T02:32:37;42.40;;;21.55;;
85742;SDS011;76184;42.004;21.420;2024-03-06T02:35:03;38.55;;;20.83;;
85742;SDS011;76184;42.004;21.420;2024-03-06T02:37:33;40.55;;;20.58;;
85742;SDS011;76184;42.004;21.420;2024-03-06T02:39:59;38.08;;;21.13;;
85742;SDS011;76184;42.004;21.420;2024-03-06T02:42:27;38.85;;;21.50;;
85742;SDS011;76184;42.004;21.420;2024-03-06T02:44:54;37.13;;;19.70;;
85742;SDS011;76184;42.004;21.420;2024-03-06T02:47:20;38.92;;;19.80;;
85742;SDS011;76184;42.004;21.420;2024-03-06T02:49:46;38.83;;;19.73;;
85742;SDS011;76184;42.004;21.420;2024-03-06T02:52:12;38.17;;;20.13;;
85742;SDS011;76184;42.004;21.420;2024-03-06T02:54:40;36.90;;;20.80;;
85742;SDS011;76184;42.004;21.420;2024-03-06T02:57:07;40.58;;;21.50;;
85742;SDS011;76184;42.004;21.420;2024-03-06T02:59:33;40.22;;;21.10;;
85742;SDS011;76184;42.004;21.420;2024-03-06T03:01:59;40.03;;;21.75;;
85742;SDS011;76184;42.004;21.420;2024-03-06T03:04:26;44.10;;;21.85;;
85742;SDS011;76184;42.004;21.420;2024-03-06T03:06:52;45.55;;;24.02;;
85742;SDS011;76184;42.004;21.420;2024-03-06T03:09:18;40.70;;;23.25;;
85742;SDS011;76184;42.004;21.420;2024-03-06T03:11:45;44.13;;;23.50;;
85742;SDS011;76184;42.004;21.420;2024-03-06T03:14:12;45.83;;;24.42;;
85742;SDS011;76184;42.004;21.420;2024-03-06T03:16:38;46.90;;;23.42;;
85742;SDS011;76184;42.004;21.420;2024-03-06T03:19:04;47.97;;;24.38;;
85742;SDS011;76184;42.004;21.420;2024-03-06T03:21:30;41.67;;;22.85;;
85742;SDS011;76184;42.004;21.420;2024-03-06T03:23:57;44.38;;;23.80;;
85742;SDS011;76184;42.004;21.420;2024-03-06T03:26:23;46.88;;;22.65;;
85742;SDS011;76184;42.004;21.420;2024-03-06T03:28:49;44.60;;;21.40;;
85742;SDS011;76184;42.004;21.420;2024-03-06T03:31:15;38.83;;;20.50;;
85742;SDS011;76184;42.004;21.420;2024-03-06T03:33:42;44.58;;;22.45;;
85742;SDS011;76184;42.004;21.420;2024-03-06T03:36:08;42.22;;;21.88;;
85742;SDS011;76184;42.004;21.420;2024-03-06T03:38:35;45.30;;;22.02;;
85742;SDS011;76184;42.004;21.420;2024-03-06T03:41:06;35.78;;;20.45;;
85742;SDS011;76184;42.004;21.420;2024-03-06T03:43:32;35.03;;;19.38;;
85742;SDS011;76184;42.004;21.420;2024-03-06T03:45:59;35.78;;;19.20;;
85742;SDS011;76184;42.004;21.420;2024-03-06T03:48:25;37.53;;;20.13;;
85742;SDS011;76184;42.004;21.420;2024-03-06T03:50:51;34.92;;;16.92;;
85742;SDS011;76184;42.004;21.420;2024-03-06T03:53:17;30.55;;;18.15;;
85742;SDS011;76184;42.004;21.420;2024-03-06T03:55:43;31.88;;;17.75;;
85742;SDS011;76184;42.004;21.420;2024-03-06T03:58:10;30.63;;;17.48;;
85742;SDS011;76184;42.004;21.420;2024-03-06T04:00:36;33.80;;;17.05;;
85742;SDS011;76184;42.004;21.420;2024-03-06T04:03:03;33.85;;;17.98;;
85742;SDS011;76184;42.004;21.420;2024-03-06T04:05:30;28.95;;;16.45;;
85742;SDS011;76184;42.004;21.420;2024-03-06T04:07:56;32.80;;;16.70;;
85742;SDS011;76184;42.004;21.420;2024-03-06T04:10:22;32.42;;;17.52;;
85742;SDS011;76184;42.004;21.420;2024-03-06T04:12:49;34.00;;;16.65;;
85742;SDS011;76184;42.004;21.420;2024-03-06T04:15:15;30.02;;;16.23;;
85742;SDS011;76184;42.004;21.420;2024-03-06T04:17:41;34.20;;;16.80;;
85742;SDS011;76184;42.004;21.420;2024-03-06T04:20:07;26.08;;;16.60;;
85742;SDS011;76184;42.004;21.420;2024-03-06T04:22:36;30.30;;;16.42;;
85742;SDS011;76184;42.004;21.420;2024-03-06T04:25:03;26.17;;;15.40;;
85742;SDS011;76184;42.004;21.420;2024-03-06T04:27:30;29.73;;;16.10;;
85742;SDS011;76184;42.004;21.420;2024-03-06T04:29:56;32.28;;;16.15;;
85742;SDS011;76184;42.004;21.420;2024-03-06T04:32:22;30.75;;;15.35;;
85742;SDS011;76184;42.004;21.420;2024-03-06T04:34:48;25.25;;;14.25;;
85742;SDS011;76184;42.004;21.420;2024-03-06T04:37:14;27.40;;;14.93;;
85742;SDS011;76184;42.004;21.420;2024-03-06T04:39:41;28.08;;;14.70;;
85742;SDS011;76184;42.004;21.420;2024-03-06T04:42:07;29.33;;;15.48;;
85742;SDS011;76184;42.004;21.420;2024-03-06T04:44:33;29.60;;;15.88;;
85742;SDS011;76184;42.004;21.420;2024-03-06T04:47:00;28.50;;;15.90;;
85742;SDS011;76184;42.004;21.420;2024-03-06T04:49:26;29.27;;;15.00;;
85742;SDS011;76184;42.004;21.420;2024-03-06T04:51:52;25.25;;;14.32;;
85742;SDS011;76184;42.004;21.420;2024-03-06T04:54:18;27.67;;;14.82;;
85742;SDS011;76184;42.004;21.420;2024-03-06T04:56:45;27.23;;;15.13;;
85742;SDS011;76184;42.004;21.420;2024-03-06T04:59:11;30.17;;;14.93;;
85742;SDS011;76184;42.004;21.420;2024-03-06T05:01:37;26.95;;;15.35;;
85742;SDS011;76184;42.004;21.420;2024-03-06T05:04:03;28.58;;;14.90;;
85742;SDS011;76184;42.004;21.420;2024-03-06T05:06:29;29.20;;;15.50;;
85742;SDS011;76184;42.004;21.420;2024-03-06T05:08:55;30.45;;;15.80;;
85742;SDS011;76184;42.004;21.420;2024-03-06T05:11:22;28.33;;;15.07;;
85742;SDS011;76184;42.004;21.420;2024-03-06T05:13:48;29.05;;;15.45;;
85742;SDS011;76184;42.004;21.420;2024-03-06T05:16:14;27.02;;;15.05;;
85742;SDS011;76184;42.004;21.420;2024-03-06T05:18:41;29.90;;;16.55;;
85742;SDS011;76184;42.004;21.420;2024-03-06T05:21:07;31.63;;;16.42;;
85742;SDS011;76184;42.004;21.420;2024-03-06T05:23:33;30.23;;;15.93;;
85742;SDS011;76184;42.004;21.420;2024-03-06T05:25:59;29.92;;;16.17;;
85742;SDS011;76184;42.004;21.420;2024-03-06T05:28:25;26.05;;;14.27;;
85742;SDS011;76184;42.004;21.420;2024-03-06T05:30:51;29.90;;;14.45;;
85742;SDS011;76184;42.004;21.420;2024-03-06T05:33:18;27.27;;;15.02;;
85742;SDS011;76184;42.004;21.420;2024-03-06T05:35:44;28.65;;;15.68;;
85742;SDS011;76184;42.004;21.420;2024-03-06T05:38:10;29.17;;;16.25;;
85742;SDS011;76184;42.004;21.420;2024-03-06T05:40:36;30.80;;;14.88;;
85742;SDS011;76184;42.004;21.420;2024-03-06T05:43:05;26.52;;;15.00;;
85742;SDS011;76184;42.004;21.420;2024-03-06T05:45:31;28.80;;;14.32;;
85742;SDS011;76184;42.004;21.420;2024-03-06T05:47:57;28.50;;;15.15;;
85742;SDS011;76184;42.004;21.420;2024-03-06T05:50:23;25.20;;;14.75;;
85742;SDS011;76184;42.004;21.420;2024-03-06T05:52:50;27.45;;;15.35;;
85742;SDS011;76184;42.004;21.420;2024-03-06T05:55:16;28.38;;;15.40;;
85742;SDS011;76184;42.004;21.420;2024-03-06T05:57:42;26.48;;;14.63;;
85742;SDS011;76184;42.004;21.420;2024-03-06T06:00:11;27.25;;;15.68;;
85742;SDS011;76184;42.004;21.420;2024-03-06T06:02:37;28.52;;;15.32;;
85742;SDS011;76184;42.004;21.420;2024-03-06T06:05:04;26.23;;;15.05;;
85742;SDS011;76184;42.004;21.420;2024-03-06T06:07:30;26.90;;;14.95;;
85742;SDS011;76184;42.004;21.420;2024-03-06T06:09:56;26.88;;;16.67;;
85742;SDS011;76184;42.004;21.420;2024-03-06T06:12:22;31.70;;;17.67;;
85742;SDS011;76184;42.004;21.420;2024-03-06T06:14:48;28.98;;;17.67;;
85742;SDS011;76184;42.004;21.420;2024-03-06T06:17:15;30.83;;;18.33;;
85742;SDS011;76184;42.004;21.420;2024-03-06T06:19:44;28.98;;;17.65;;
85742;SDS011;76184;42.004;21.420;2024-03-06T06:22:10;31.67;;;17.27;;
85742;SDS011;76184;42.004;21.420;2024-03-06T06:24:36;33.17;;;16.23;;
85742;SDS011;76184;42.004;21.420;2024-03-06T06:27:03;37.85;;;17.38;;
85742;SDS011;76184;42.004;21.420;2024-03-06T06:29:30;28.10;;;15.50;;
85742;SDS011;76184;42.004;21.420;2024-03-06T06:31:56;33.95;;;15.05;;
85742;SDS011;76184;42.004;21.420;2024-03-06T06:34:22;32.63;;;15.38;;
85742;SDS011;76184;42.004;21.420;2024-03-06T06:36:52;30.20;;;15.90;;
85742;SDS011;76184;42.004;21.420;2024-03-06T06:39:18;31.77;;;15.63;;
85742;SDS011;76184;42.004;21.420;2024-03-06T06:41:45;30.08;;;16.65;;
85742;SDS011;76184;42.004;21.420;2024-03-06T06:44:11;36.08;;;15.52;;
85742;SDS011;76184;42.004;21.420;2024-03-06T06:46:38;28.73;;;16.20;;
85742;SDS011;76184;42.004;21.420;2024-03-06T06:49:04;28.17;;;15.13;;
85742;SDS011;76184;42.004;21.420;2024-03-06T06:51:30;30.90;;;14.98;;
85742;SDS011;76184;42.004;21.420;2024-03-06T06:53:57;34.35;;;15.82;;
85742;SDS011;76184;42.004;21.420;2024-03-06T06:56:23;30.05;;;15.90;;
85742;SDS011;76184;42.004;21.420;2024-03-06T06:58:50;29.08;;;15.75;;
85742;SDS011;76184;42.004;21.420;2024-03-06T07:01:17;27.08;;;16.00;;
85742;SDS011;76184;42.004;21.420;2024-03-06T07:03:44;37.80;;;17.73;;
85742;SDS011;76184;42.004;21.420;2024-03-06T07:06:10;29.00;;;16.55;;
85742;SDS011;76184;42.004;21.420;2024-03-06T07:08:36;29.92;;;16.73;;
85742;SDS011;76184;42.004;21.420;2024-03-06T07:11:02;33.67;;;17.20;;
85742;SDS011;76184;42.004;21.420;2024-03-06T07:13:29;27.65;;;16.67;;
85742;SDS011;76184;42.004;21.420;2024-03-06T07:15:55;26.25;;;16.27;;
85742;SDS011;76184;42.004;21.420;2024-03-06T07:18:21;26.70;;;16.13;;
85742;SDS011;76184;42.004;21.420;2024-03-06T07:20:47;31.83;;;16.70;;
85742;SDS011;76184;42.004;21.420;2024-03-06T07:23:14;29.17;;;16.27;;
85742;SDS011;76184;42.004;21.420;2024-03-06T07:25:40;28.50;;;16.25;;
85742;SDS011;76184;42.004;21.420;2024-03-06T07:28:06;33.63;;;16.65;;
85742;SDS011;76184;42.004;21.420;2024-03-06T07:30:32;29.45;;;15.75;;
85742;SDS011;76184;42.004;21.420;2024-03-06T07:33:00;28.58;;;15.73;;
85742;SDS011;76184;42.004;21.420;2024-03-06T07:35:26;29.92;;;15.80;;
85742;SDS011;76184;42.004;21.420;2024-03-06T07:37:52;31.73;;;16.65;;
85742;SDS011;76184;42.004;21.420;2024-03-06T07:40:19;34.17;;;16.83;;
85742;SDS011;76184;42.004;21.420;2024-03-06T07:42:45;30.08;;;16.42;;
85742;SDS011;76184;42.004;21.420;2024-03-06T07:45:14;26.88;;;15.05;;
85742;SDS011;76184;42.004;21.420;2024-03-06T07:47:41;28.67;;;15.90;;
85742;SDS011;76184;42.004;21.420;2024-03-06T07:50:08;28.55;;;15.10;;
85742;SDS011;76184;42.004;21.420;2024-03-06T07:52:36;25.73;;;14.95;;
85742;SDS011;76184;42.004;21.420;2024-03-06T07:55:02;25.08;;;15.23;;
85742;SDS011;76184;42.004;21.420;2024-03-06T07:57:29;26.33;;;15.45;;
85742;SDS011;76184;42.004;21.420;2024-03-06T07:59:55;26.90;;;15.63;;
85742;SDS011;76184;42.004;21.420;2024-03-06T08:02:23;29.98;;;15.88;;
85742;SDS011;76184;42.004;21.420;2024-03-06T08:04:50;26.52;;;14.48;;
85742;SDS011;76184;42.004;21.420;2024-03-06T08:07:17;28.38;;;16.23;;
85742;SDS011;76184;42.004;21.420;2024-03-06T08:09:44;27.45;;;15.32;;
85742;SDS011;76184;42.004;21.420;2024-03-06T08:12:11;32.47;;;15.52;;
85742;SDS011;76184;42.004;21.420;2024-03-06T08:14:38;26.83;;;15.65;;
85742;SDS011;76184;42.004;21.420;2024-03-06T08:17:06;28.83;;;15.50;;
85742;SDS011;76184;42.004;21.420;2024-03-06T08:19:32;28.52;;;16.42;;
85742;SDS011;76184;42.004;21.420;2024-03-06T08:22:00;27.02;;;15.30;;
85742;SDS011;76184;42.004;21.420;2024-03-06T08:24:27;24.08;;;15.02;;
85742;SDS011;76184;42.004;21.420;2024-03-06T08:26:54;25.52;;;15.18;;
85742;SDS011;76184;42.004;21.420;2024-03-06T08:29:22;25.30;;;14.55;;
85742;SDS011;76184;42.004;21.420;2024-03-06T08:31:49;19.90;;;13.77;;
85742;SDS011;76184;42.004;21.420;2024-03-06T08:34:16;25.45;;;14.35;;
85742;SDS011;76184;42.004;21.420;2024-03-06T08:36:42;22.77;;;15.27;;
85742;SDS011;76184;42.004;21.420;2024-03-06T08:39:08;23.45;;;14.60;;
85742;SDS011;76184;42.004;21.420;2024-03-06T08:41:38;24.55;;;15.10;;
85742;SDS011;76184;42.004;21.420;2024-03-06T08:44:04;26.65;;;15.13;;
85742;SDS011;76184;42.004;21.420;2024-03-06T08:46:31;24.48;;;14.15;;
85742;SDS011;76184;42.004;21.420;2024-03-06T08:48:58;24.60;;;14.43;;
85742;SDS011;76184;42.004;21.420;2024-03-06T08:51:24;21.02;;;13.30;;
85742;SDS011;76184;42.004;21.420;2024-03-06T08:53:51;27.45;;;16.02;;
85742;SDS011;76184;42.004;21.420;2024-03-06T08:56:17;26.85;;;15.98;;
85742;SDS011;76184;42.004;21.420;2024-03-06T08:58:43;24.23;;;14.88;;
85742;SDS011;76184;42.004;21.420;2024-03-06T09:01:09;27.92;;;16.50;;
85742;SDS011;76184;42.004;21.420;2024-03-06T09:03:40;26.13;;;15.30;;
85742;SDS011;76184;42.004;21.420;2024-03-06T09:08:33;23.80;;;15.25;;
85742;SDS011;76184;42.004;21.420;2024-03-06T09:10:59;23.85;;;15.45;;
85742;SDS011;76184;42.004;21.420;2024-03-06T09:13:26;24.95;;;14.43;;
85742;SDS011;76184;42.004;21.420;2024-03-06T09:15:52;24.45;;;14.68;;
85742;SDS011;76184;42.004;21.420;2024-03-06T09:18:18;20.50;;;13.55;;
85742;SDS011;76184;42.004;21.420;2024-03-06T09:20:45;23.35;;;15.43;;
85742;SDS011;76184;42.004;21.420;2024-03-06T09:23:11;25.42;;;15.73;;
85742;SDS011;76184;42.004;21.420;2024-03-06T09:25:37;23.25;;;14.63;;
85742;SDS011;76184;42.004;21.420;2024-03-06T09:28:03;24.20;;;15.48;;
85742;SDS011;76184;42.004;21.420;2024-03-06T09:30:31;26.10;;;15.60;;
85742;SDS011;76184;42.004;21.420;2024-03-06T09:32:58;23.67;;;14.75;;
85742;SDS011;76184;42.004;21.420;2024-03-06T09:35:24;27.20;;;16.63;;
85742;SDS011;76184;42.004;21.420;2024-03-06T09:37:50;25.92;;;16.85;;
85742;SDS011;76184;42.004;21.420;2024-03-06T09:40:20;25.85;;;15.65;;
85742;SDS011;76184;42.004;21.420;2024-03-06T09:42:47;27.48;;;16.88;;
85742;SDS011;76184;42.004;21.420;2024-03-06T09:45:14;30.38;;;18.50;;
85742;SDS011;76184;42.004;21.420;2024-03-06T09:47:41;28.00;;;16.83;;
85742;SDS011;76184;42.004;21.420;2024-03-06T09:50:09;22.00;;;14.38;;
85742;SDS011;76184;42.004;21.420;2024-03-06T09:52:36;26.13;;;15.50;;
85742;SDS011;76184;42.004;21.420;2024-03-06T09:55:02;29.08;;;16.30;;
85742;SDS011;76184;42.004;21.420;2024-03-06T09:57:29;21.15;;;15.60;;
85742;SDS011;76184;42.004;21.420;2024-03-06T09:59:57;20.45;;;14.63;;
85742;SDS011;76184;42.004;21.420;2024-03-06T10:04:57;21.65;;;14.55;;
85742;SDS011;76184;42.004;21.420;2024-03-06T10:07:23;22.45;;;14.13;;
85742;SDS011;76184;42.004;21.420;2024-03-06T10:09:51;22.48;;;15.25;;
85742;SDS011;76184;42.004;21.420;2024-03-06T10:12:18;19.58;;;15.18;;
85742;SDS011;76184;42.004;21.420;2024-03-06T10:14:49;23.73;;;15.40;;
85742;SDS011;76184;42.004;21.420;2024-03-06T10:19:42;23.83;;;13.25;;
85742;SDS011;76184;42.004;21.420;2024-03-06T10:22:15;23.70;;;14.57;;
85742;SDS011;76184;42.004;21.420;2024-03-06T10:24:42;21.35;;;12.77;;
85742;SDS011;76184;42.004;21.420;2024-03-06T10:27:13;19.70;;;12.30;;
85742;SDS011;76184;42.004;21.420;2024-03-06T10:29:40;18.58;;;12.55;;
85742;SDS011;76184;42.004;21.420;2024-03-06T10:32:07;24.90;;;12.80;;
85742;SDS011;76184;42.004;21.420;2024-03-06T10:34:34;24.13;;;14.38;;
85742;SDS011;76184;42.004;21.420;2024-03-06T10:37:04;22.77;;;13.68;;
85742;SDS011;76184;42.004;21.420;2024-03-06T10:39:31;19.77;;;13.73;;
85742;SDS011;76184;42.004;21.420;2024-03-06T10:42:03;20.83;;;14.00;;
85742;SDS011;76184;42.004;21.420;2024-03-06T10:44:33;33.08;;;15.88;;
85742;SDS011;76184;42.004;21.420;2024-03-06T10:47:02;20.73;;;13.85;;
85742;SDS011;76184;42.004;21.420;2024-03-06T10:49:29;18.25;;;13.45;;
85742;SDS011;76184;42.004;21.420;2024-03-06T10:52:02;25.48;;;13.60;;
85742;SDS011;76184;42.004;21.420;2024-03-06T10:54:32;20.42;;;13.65;;
85742;SDS011;76184;42.004;21.420;2024-03-06T10:57:04;22.42;;;12.93;;
85742;SDS011;76184;42.004;21.420;2024-03-06T10:59:32;21.92;;;11.48;;
85742;SDS011;76184;42.004;21.420;2024-03-06T11:02:01;19.42;;;12.90;;
85742;SDS011;76184;42.004;21.420;2024-03-06T11:04:31;21.15;;;13.05;;
85742;SDS011;76184;42.004;21.420;2024-03-06T11:07:01;20.55;;;13.52;;
85742;SDS011;76184;42.004;21.420;2024-03-06T11:09:37;18.73;;;11.60;;
85742;SDS011;76184;42.004;21.420;2024-03-06T11:12:04;21.63;;;12.55;;
85742;SDS011;76184;42.004;21.420;2024-03-06T11:14:37;21.58;;;12.27;;
85742;SDS011;76184;42.004;21.420;2024-03-06T11:17:10;20.35;;;12.68;;
85742;SDS011;76184;42.004;21.420;2024-03-06T11:28:42;18.77;;;11.00;;
85742;SDS011;76184;42.004;21.420;2024-03-06T11:31:11;16.98;;;10.70;;
85742;SDS011;76184;42.004;21.420;2024-03-06T11:33:44;15.10;;;9.57;;
85742;SDS011;76184;42.004;21.420;2024-03-06T11:36:18;20.35;;;10.32;;
85742;SDS011;76184;42.004;21.420;2024-03-06T11:41:26;21.60;;;12.02;;
85742;SDS011;76184;42.004;21.420;2024-03-06T11:43:53;22.88;;;11.02;;
85742;SDS011;76184;42.004;21.420;2024-03-06T11:46:40;16.73;;;11.23;;
85742;SDS011;76184;42.004;21.420;2024-03-06T11:49:22;18.25;;;10.50;;
85742;SDS011;76184;42.004;21.420;2024-03-06T11:51:54;18.60;;;10.32;;
85742;SDS011;76184;42.004;21.420;2024-03-06T11:54:21;17.58;;;9.75;;
85742;SDS011;76184;42.004;21.420;2024-03-06T11:56:53;15.18;;;9.43;;
85742;SDS011;76184;42.004;21.420;2024-03-06T11:59:23;18.27;;;9.93;;
85742;SDS011;76184;42.004;21.420;2024-03-06T12:01:50;13.60;;;9.20;;
85742;SDS011;76184;42.004;21.420;2024-03-06T12:04:20;18.52;;;10.15;;
85742;SDS011;76184;42.004;21.420;2024-03-06T12:09:45;13.38;;;8.13;;
85742;SDS011;76184;42.004;21.420;2024-03-06T12:12:12;12.38;;;6.88;;
85742;SDS011;76184;42.004;21.420;2024-03-06T12:14:38;13.90;;;7.78;;
85742;SDS011;76184;42.004;21.420;2024-03-06T12:17:04;15.82;;;8.65;;
85742;SDS011;76184;42.004;21.420;2024-03-06T12:19:34;13.73;;;7.57;;
85742;SDS011;76184;42.004;21.420;2024-03-06T12:22:01;9.93;;;6.40;;
85742;SDS011;76184;42.004;21.420;2024-03-06T12:24:29;14.27;;;7.22;;
85742;SDS011;76184;42.004;21.420;2024-03-06T12:27:05;11.38;;;7.78;;
85742;SDS011;76184;42.004;21.420;2024-03-06T12:29:32;12.20;;;7.00;;
85742;SDS011;76184;42.004;21.420;2024-03-06T12:31:59;11.90;;;6.53;;
85742;SDS011;76184;42.004;21.420;2024-03-06T12:34:26;11.05;;;6.85;;
85742;SDS011;76184;42.004;21.420;2024-03-06T12:36:52;15.20;;;8.60;;
85742;SDS011;76184;42.004;21.420;2024-03-06T12:39:18;11.23;;;7.05;;
85742;SDS011;76184;42.004;21.420;2024-03-06T12:41:48;11.20;;;6.75;;
85742;SDS011;76184;42.004;21.420;2024-03-06T12:44:15;10.73;;;7.18;;
85742;SDS011;76184;42.004;21.420;2024-03-06T12:46:42;10.40;;;6.53;;
85742;SDS011;76184;42.004;21.420;2024-03-06T12:49:08;9.15;;;6.13;;
85742;SDS011;76184;42.004;21.420;2024-03-06T12:51:34;11.02;;;5.90;;
85742;SDS011;76184;42.004;21.420;2024-03-06T12:54:00;11.23;;;6.07;;
85742;SDS011;76184;42.004;21.420;2024-03-06T12:56:29;11.52;;;6.50;;
85742;SDS011;76184;42.004;21.420;2024-03-06T12:58:55;10.80;;;6.22;;
85742;SDS011;76184;42.004;21.420;2024-03-06T13:01:25;10.30;;;6.00;;
85742;SDS011;76184;42.004;21.420;2024-03-06T13:03:51;9.52;;;5.45;;
85742;SDS011;76184;42.004;21.420;2024-03-06T13:06:17;10.75;;;5.55;;
85742;SDS011;76184;42.004;21.420;2024-03-06T13:08:43;9.82;;;5.20;;
85742;SDS011;76184;42.004;21.420;2024-03-06T13:11:10;11.45;;;5.55;;
85742;SDS011;76184;42.004;21.420;2024-03-06T13:13:37;11.88;;;4.90;;
85742;SDS011;76184;42.004;21.420;2024-03-06T13:16:03;10.15;;;5.80;;
85742;SDS011;76184;42.004;21.420;2024-03-06T13:18:29;8.93;;;5.20;;
85742;SDS011;76184;42.004;21.420;2024-03-06T13:20:55;11.45;;;5.03;;
85742;SDS011;76184;42.004;21.420;2024-03-06T13:23:23;10.18;;;5.50;;
85742;SDS011;76184;42.004;21.420;2024-03-06T13:25:49;11.07;;;5.43;;
85742;SDS011;76184;42.004;21.420;2024-03-06T13:28:16;9.88;;;5.35;;
85742;SDS011;76184;42.004;21.420;2024-03-06T13:30:42;10.88;;;5.53;;
85742;SDS011;76184;42.004;21.420;2024-03-06T13:33:08;9.02;;;5.32;;
85742;SDS011;76184;42.004;21.420;2024-03-06T13:35:35;9.63;;;5.47;;
85742;SDS011;76184;42.004;21.420;2024-03-06T13:38:03;9.80;;;5.95;;
85742;SDS011;76184;42.004;21.420;2024-03-06T13:40:32;11.68;;;5.18;;
85742;SDS011;76184;42.004;21.420;2024-03-06T13:42:59;11.40;;;5.53;;
85742;SDS011;76184;42.004;21.420;2024-03-06T13:45:25;10.75;;;6.07;;
85742;SDS011;76184;42.004;21.420;2024-03-06T13:47:52;12.60;;;5.53;;
85742;SDS011;76184;42.004;21.420;2024-03-06T13:50:19;9.55;;;5.28;;
85742;SDS011;76184;42.004;21.420;2024-03-06T13:52:47;13.02;;;5.40;;
85742;SDS011;76184;42.004;21.420;2024-03-06T13:55:13;12.23;;;5.97;;
85742;SDS011;76184;42.004;21.420;2024-03-06T13:57:39;10.30;;;5.10;;
85742;SDS011;76184;42.004;21.420;2024-03-06T14:00:06;9.07;;;5.38;;
85742;SDS011;76184;42.004;21.420;2024-03-06T14:02:42;11.25;;;5.88;;
85742;SDS011;76184;42.004;21.420;2024-03-06T14:05:10;8.52;;;5.25;;
85742;SDS011;76184;42.004;21.420;2024-03-06T14:07:38;10.60;;;5.88;;
85742;SDS011;76184;42.004;21.420;2024-03-06T14:10:05;9.02;;;5.55;;
85742;SDS011;76184;42.004;21.420;2024-03-06T14:12:33;11.32;;;5.95;;
85742;SDS011;76184;42.004;21.420;2024-03-06T14:15:00;11.52;;;6.25;;
85742;SDS011;76184;42.004;21.420;2024-03-06T14:17:28;10.77;;;5.90;;
85742;SDS011;76184;42.004;21.420;2024-03-06T14:19:54;9.85;;;5.78;;
85742;SDS011;76184;42.004;21.420;2024-03-06T14:22:20;12.85;;;5.82;;
85742;SDS011;76184;42.004;21.420;2024-03-06T14:24:46;10.88;;;6.28;;
85742;SDS011;76184;42.004;21.420;2024-03-06T14:27:12;13.00;;;6.00;;
85742;SDS011;76184;42.004;21.420;2024-03-06T14:29:45;12.60;;;6.13;;
85742;SDS011;76184;42.004;21.420;2024-03-06T14:32:11;13.68;;;6.30;;